createdAt,value
2023-04-08T00:00:53.220Z,4.97
2023-04-08T00:03:21.736Z,5.10
2023-04-08T00:05:48.934Z,5.10
2023-04-08T00:08:15.877Z,5.00
2023-04-08T00:10:42.797Z,4.77
2023-04-08T00:13:10.476Z,4.40
2023-04-08T00:15:37.888Z,4.00
2023-04-08T00:18:04.921Z,4.17
2023-04-08T00:20:31.966Z,3.90
2023-04-08T00:22:58.855Z,3.90
2023-04-08T00:25:26.119Z,3.50
2023-04-08T00:27:53.086Z,4.00
2023-04-08T00:30:20.262Z,4.10
2023-04-08T00:32:47.508Z,4.27
2023-04-08T00:35:14.527Z,4.63
2023-04-08T00:37:41.607Z,4.40
2023-04-08T00:40:09.245Z,5.13
2023-04-08T00:42:36.695Z,5.00
2023-04-08T00:45:04.110Z,5.27
2023-04-08T00:47:31.386Z,4.50
2023-04-08T00:49:58.458Z,5.60
2023-04-08T00:52:25.404Z,5.47
2023-04-08T00:54:52.415Z,5.47
2023-04-08T00:57:19.493Z,5.57
2023-04-08T00:59:46.478Z,5.50
2023-04-08T01:02:32.408Z,5.07
2023-04-08T01:05:18.429Z,6.07
2023-04-08T01:07:49.061Z,5.60
2023-04-08T01:10:22.855Z,5.80
2023-04-08T01:12:56.389Z,5.30
2023-04-08T01:15:26.476Z,5.47
2023-04-08T01:17:56.013Z,5.40
2023-04-08T01:20:25.932Z,6.40
2023-04-08T01:23:03.751Z,6.10
2023-04-08T01:25:32.759Z,5.90
2023-04-08T01:28:04.799Z,5.97
2023-04-08T01:30:34.624Z,5.63
2023-04-08T01:33:04.161Z,5.50
2023-04-08T01:35:32.271Z,5.80
2023-04-08T01:38:01.349Z,6.03
2023-04-08T01:40:28.446Z,5.37
2023-04-08T01:42:58.540Z,5.70
2023-04-08T01:45:26.298Z,5.60
2023-04-08T01:47:53.857Z,5.43
2023-04-08T01:50:22.569Z,5.67
2023-04-08T01:52:53.726Z,6.40
2023-04-08T01:55:21.406Z,6.90
2023-04-08T01:57:51.517Z,5.77
2023-04-08T02:00:30.134Z,5.43
2023-04-08T02:02:59.179Z,5.87
2023-04-08T02:05:26.586Z,6.17
2023-04-08T02:07:53.803Z,6.70
2023-04-08T02:10:21.152Z,6.37
2023-04-08T02:12:48.300Z,6.23
2023-04-08T02:15:15.748Z,5.43
2023-04-08T02:17:52.642Z,6.30
2023-04-08T02:20:31.664Z,5.77
2023-04-08T02:23:25.113Z,6.53
2023-04-08T02:25:55.970Z,6.33
2023-04-08T02:28:23.877Z,6.37
2023-04-08T02:30:53.108Z,7.10
2023-04-08T02:33:23.276Z,6.37
2023-04-08T02:35:55.066Z,6.13
2023-04-08T02:38:24.042Z,6.57
2023-04-08T02:40:51.470Z,6.87
2023-04-08T02:43:18.650Z,7.07
2023-04-08T02:45:46.452Z,6.50
2023-04-08T02:48:13.559Z,6.67
2023-04-08T02:50:41.179Z,7.03
2023-04-08T02:53:09.303Z,6.80
2023-04-08T02:55:36.325Z,7.33
2023-04-08T02:58:03.485Z,6.80
2023-04-08T03:00:30.920Z,7.10
2023-04-08T03:02:58.074Z,7.27
2023-04-08T03:05:27.027Z,6.80
2023-04-08T03:07:54.059Z,6.60
2023-04-08T03:10:21.151Z,6.87
2023-04-08T03:12:48.217Z,6.83
2023-04-08T03:15:15.249Z,7.37
2023-04-08T03:17:42.277Z,7.67
2023-04-08T03:20:09.905Z,6.97
2023-04-08T03:22:37.521Z,7.70
2023-04-08T03:25:04.965Z,7.47
2023-04-08T03:27:32.065Z,7.40
2023-04-08T03:29:59.121Z,7.23
2023-04-08T03:32:26.228Z,8.37
2023-04-08T03:34:53.610Z,7.50
2023-04-08T03:37:20.788Z,8.30
2023-04-08T03:39:47.729Z,7.67
2023-04-08T03:42:14.924Z,7.17
2023-04-08T03:44:41.962Z,6.73
2023-04-08T03:47:08.970Z,7.00
2023-04-08T03:49:36.506Z,7.63
2023-04-08T03:52:03.588Z,7.33
2023-04-08T03:54:30.795Z,7.43
2023-04-08T03:56:57.805Z,7.80
2023-04-08T03:59:25.081Z,7.70
2023-04-08T04:01:53.636Z,7.50
2023-04-08T04:04:21.396Z,7.77
2023-04-08T04:06:48.870Z,8.53
2023-04-08T04:09:16.813Z,8.10
2023-04-08T04:11:43.800Z,7.30
2023-04-08T04:14:10.855Z,7.43
2023-04-08T04:16:37.786Z,7.87
2023-04-08T04:19:04.907Z,7.37
2023-04-08T04:21:31.874Z,7.50
2023-04-08T04:23:58.747Z,7.93
2023-04-08T04:26:26.010Z,8.10
2023-04-08T04:28:53.154Z,7.53
2023-04-08T04:31:27.659Z,7.50
2023-04-08T04:33:55.132Z,8.17
2023-04-08T04:36:22.107Z,8.67
2023-04-08T04:38:50.841Z,8.20
2023-04-08T04:41:18.298Z,8.20
2023-04-08T04:43:46.058Z,7.97
2023-04-08T04:46:13.100Z,7.60
2023-04-08T04:48:40.672Z,7.80
2023-04-08T04:51:09.974Z,7.83
2023-04-08T04:53:37.054Z,7.70
2023-04-08T04:56:04.303Z,7.60
2023-04-08T04:58:31.772Z,7.93
2023-04-08T05:00:58.921Z,7.83
2023-04-08T05:03:26.146Z,7.63
2023-04-08T05:05:56.471Z,7.40
2023-04-08T05:08:24.136Z,7.73
2023-04-08T05:10:52.242Z,7.60
2023-04-08T05:13:19.391Z,7.57
2023-04-08T05:15:46.690Z,7.70
2023-04-08T05:18:14.188Z,7.07
2023-04-08T05:20:41.230Z,7.50
2023-04-08T05:23:08.751Z,7.13
2023-04-08T05:25:36.184Z,7.20
2023-04-08T05:28:04.407Z,6.63
2023-04-08T05:30:31.499Z,7.93
2023-04-08T05:33:00.331Z,7.63
2023-04-08T05:35:28.802Z,7.80
2023-04-08T05:37:56.046Z,7.67
2023-04-08T05:40:23.066Z,7.33
2023-04-08T05:42:50.255Z,6.70
2023-04-08T05:45:17.354Z,8.53
2023-04-08T05:47:44.368Z,7.37
2023-04-08T05:50:11.961Z,7.70
2023-04-08T05:52:46.518Z,8.03
2023-04-08T05:55:14.697Z,8.10
2023-04-08T05:57:42.109Z,7.90
2023-04-08T06:00:11.187Z,8.13
2023-04-08T06:02:38.745Z,8.43
2023-04-08T06:05:06.850Z,8.77
2023-04-08T06:07:34.576Z,9.20
2023-04-08T06:10:02.231Z,8.27
2023-04-08T06:12:29.589Z,8.03
2023-04-08T06:14:57.087Z,7.50
2023-04-08T06:17:25.013Z,8.73
2023-04-08T06:19:52.133Z,9.17
2023-04-08T06:22:19.086Z,8.07
2023-04-08T06:24:50.495Z,8.40
2023-04-08T06:27:17.463Z,7.97
2023-04-08T06:29:44.587Z,8.80
2023-04-08T06:32:11.639Z,8.77
2023-04-08T06:34:38.637Z,8.30
2023-04-08T06:37:06.467Z,8.33
2023-04-08T06:39:33.913Z,8.43
2023-04-08T06:42:00.845Z,8.00
2023-04-08T06:44:34.725Z,8.43
2023-04-08T06:47:02.430Z,7.30
2023-04-08T06:49:30.354Z,8.17
2023-04-08T06:51:57.894Z,8.03
2023-04-08T06:54:25.850Z,8.27
2023-04-08T06:56:53.278Z,8.50
2023-04-08T06:59:20.414Z,8.10
2023-04-08T07:01:47.503Z,8.57
2023-04-08T07:04:14.503Z,8.40
2023-04-08T07:06:41.622Z,9.57
2023-04-08T07:09:09.131Z,8.37
2023-04-08T07:11:36.187Z,8.50
2023-04-08T07:14:03.105Z,8.53
2023-04-08T07:16:30.107Z,8.13
2023-04-08T07:18:57.981Z,7.93
2023-04-08T07:21:24.947Z,6.87
2023-04-08T07:23:51.842Z,7.90
2023-04-08T07:26:18.781Z,7.63
2023-04-08T07:28:45.865Z,7.43
2023-04-08T07:31:17.725Z,7.77
2023-04-08T07:33:46.286Z,7.47
2023-04-08T07:36:15.239Z,6.67
2023-04-08T07:38:42.219Z,6.23
2023-04-08T07:41:09.217Z,6.60
2023-04-08T07:43:37.412Z,6.60
2023-04-08T07:46:07.694Z,6.90
2023-04-08T07:48:35.937Z,6.43
2023-04-08T07:51:11.331Z,6.97
2023-04-08T07:53:40.295Z,7.03
2023-04-08T07:56:19.609Z,6.50
2023-04-08T07:58:47.107Z,6.10
2023-04-08T08:01:23.215Z,6.33
2023-04-08T08:03:52.409Z,6.00
2023-04-08T08:06:20.823Z,6.07
2023-04-08T08:08:56.758Z,6.00
2023-04-08T08:11:30.057Z,6.67
2023-04-08T08:13:57.199Z,6.33
2023-04-08T08:16:27.351Z,6.30
2023-04-08T08:18:54.483Z,6.37
2023-04-08T08:21:21.486Z,5.93
2023-04-08T08:23:48.597Z,6.37
2023-04-08T08:26:15.987Z,6.43
2023-04-08T08:28:43.118Z,5.73
2023-04-08T08:31:10.248Z,5.63
2023-04-08T08:33:37.280Z,5.50
2023-04-08T08:36:07.728Z,6.00
2023-04-08T08:38:34.730Z,5.57
2023-04-08T08:41:04.113Z,5.63
2023-04-08T08:43:33.696Z,5.33
2023-04-08T08:46:00.802Z,5.30
2023-04-08T08:48:28.197Z,5.33
2023-04-08T08:50:55.296Z,5.37
2023-04-08T08:53:23.380Z,5.33
2023-04-08T08:56:16.231Z,5.43
2023-04-08T08:58:39.372Z,6.00
2023-04-08T09:01:35.256Z,5.70
2023-04-08T09:04:18.475Z,5.10
2023-04-08T09:06:48.835Z,5.43
2023-04-08T09:09:16.000Z,5.40
2023-04-08T09:11:47.772Z,5.60
2023-04-08T09:14:33.198Z,4.70
2023-04-08T09:17:00.134Z,5.27
2023-04-08T09:19:27.021Z,5.27
2023-04-08T09:22:13.155Z,5.93
2023-04-08T09:24:40.745Z,5.93
2023-04-08T09:27:07.750Z,5.90
2023-04-08T09:29:38.229Z,6.20
2023-04-08T09:32:06.301Z,5.72
2023-04-08T09:34:34.289Z,5.90
2023-04-08T09:37:01.989Z,5.70
2023-04-08T09:39:28.958Z,6.13
2023-04-08T09:42:01.356Z,6.15
2023-04-08T09:44:31.304Z,5.45
2023-04-08T09:47:27.413Z,5.95
2023-04-08T09:50:04.115Z,5.90
2023-04-08T09:52:44.961Z,5.80
2023-04-08T09:55:14.551Z,5.72
2023-04-08T09:57:59.927Z,6.05
2023-04-08T10:00:39.061Z,6.03
2023-04-08T10:03:48.326Z,6.85
2023-04-08T10:06:16.932Z,5.90
2023-04-08T10:08:44.972Z,6.57
2023-04-08T10:11:12.289Z,6.97
2023-04-08T10:13:39.352Z,6.75
2023-04-08T10:16:27.677Z,6.45
2023-04-08T10:18:58.525Z,7.15
2023-04-08T10:21:51.002Z,6.55
2023-04-08T10:24:19.099Z,6.20
2023-04-08T10:26:46.301Z,6.72
2023-04-08T10:29:19.462Z,7.00
2023-04-08T10:31:53.125Z,7.03
2023-04-08T10:34:26.811Z,7.15
2023-04-08T10:36:56.981Z,7.40
2023-04-08T10:39:26.442Z,7.47
2023-04-08T10:41:53.527Z,7.80
2023-04-08T10:44:27.257Z,7.03
2023-04-08T10:46:55.767Z,7.85
2023-04-08T10:49:22.872Z,7.72
2023-04-08T10:51:50.021Z,8.65
2023-04-08T10:54:18.951Z,8.70
2023-04-08T10:56:51.110Z,8.70
2023-04-08T10:59:28.160Z,9.50
2023-04-08T11:01:55.616Z,9.32
2023-04-08T11:04:25.835Z,8.13
2023-04-08T11:06:53.688Z,8.90
2023-04-08T11:09:21.041Z,8.25
2023-04-08T11:11:47.964Z,8.80
2023-04-08T11:14:15.611Z,7.93
2023-04-08T11:16:43.106Z,9.25
2023-04-08T11:19:10.097Z,8.68
2023-04-08T11:21:38.662Z,8.45
2023-04-08T11:24:13.369Z,8.50
2023-04-08T11:26:41.532Z,8.88
2023-04-08T11:29:15.203Z,10.73
2023-04-08T11:31:44.090Z,10.30
2023-04-08T11:34:11.431Z,10.77
2023-04-08T11:36:41.969Z,10.52
2023-04-08T11:39:12.318Z,10.27
2023-04-08T11:41:40.651Z,10.45
2023-04-08T11:44:08.315Z,10.70
2023-04-08T11:46:36.224Z,13.25
2023-04-08T11:49:08.891Z,13.68
2023-04-08T11:51:57.784Z,13.00
2023-04-08T11:54:33.117Z,14.10
2023-04-08T11:57:01.171Z,13.18
2023-04-08T11:59:29.491Z,12.20
2023-04-08T12:01:57.334Z,12.85
2023-04-08T12:04:24.527Z,13.55
2023-04-08T12:06:52.455Z,12.57
2023-04-08T12:09:19.804Z,13.80
2023-04-08T12:11:46.803Z,14.25
2023-04-08T12:14:14.341Z,15.10
2023-04-08T12:16:41.315Z,14.45
2023-04-08T12:19:08.287Z,13.82
2023-04-08T12:21:35.319Z,14.15
2023-04-08T12:24:02.335Z,13.20
2023-04-08T12:26:29.269Z,13.93
2023-04-08T12:28:56.175Z,13.98
2023-04-08T12:31:23.510Z,13.55
2023-04-08T12:33:50.761Z,13.10
2023-04-08T12:36:17.922Z,14.32
2023-04-08T12:38:44.942Z,12.93
2023-04-08T12:41:11.873Z,11.90
2023-04-08T12:43:39.380Z,12.23
2023-04-08T12:46:06.414Z,11.95
2023-04-08T12:48:33.500Z,11.43
2023-04-08T12:51:00.413Z,11.23
2023-04-08T12:53:27.613Z,11.43
2023-04-08T12:55:57.310Z,10.43
2023-04-08T12:58:25.641Z,9.45
2023-04-08T13:00:52.662Z,9.30
2023-04-08T13:03:19.873Z,9.38
2023-04-08T13:05:46.989Z,9.10
2023-04-08T13:08:13.890Z,9.35
2023-04-08T13:10:42.906Z,9.20
2023-04-08T13:13:09.891Z,8.57
2023-04-08T13:15:36.938Z,9.13
2023-04-08T13:18:04.733Z,8.98
2023-04-08T13:20:31.850Z,9.13
2023-04-08T13:22:58.820Z,10.00
2023-04-08T13:25:25.743Z,10.07
2023-04-08T13:27:52.747Z,8.98
2023-04-08T13:30:19.784Z,8.85
2023-04-08T13:32:46.757Z,7.75
2023-04-08T13:35:13.967Z,7.40
2023-04-08T13:37:40.953Z,7.72
2023-04-08T13:40:09.840Z,8.23
2023-04-08T13:42:37.474Z,7.97
2023-04-08T13:45:04.953Z,8.48
2023-04-08T13:47:32.277Z,7.63
2023-04-08T13:49:59.263Z,7.50
2023-04-08T13:52:26.332Z,8.32
2023-04-08T13:54:53.300Z,9.93
2023-04-08T13:57:20.330Z,9.82
2023-04-08T13:59:47.779Z,11.27
2023-04-08T14:02:14.789Z,10.93
2023-04-08T14:04:42.258Z,10.20
2023-04-08T14:07:09.673Z,9.82
2023-04-08T14:09:36.999Z,10.13
2023-04-08T14:12:04.067Z,10.88
2023-04-08T14:14:31.288Z,10.82
2023-04-08T14:16:58.334Z,9.82
2023-04-08T14:19:25.432Z,9.75
2023-04-08T14:21:52.333Z,7.57
2023-04-08T14:24:19.419Z,8.30
2023-04-08T14:26:46.396Z,8.23
2023-04-08T14:29:13.402Z,9.25
2023-04-08T14:31:40.384Z,11.23
2023-04-08T14:34:07.320Z,11.68
2023-04-08T14:36:34.208Z,11.57
2023-04-08T14:39:01.515Z,11.10
2023-04-08T14:41:28.400Z,11.15
2023-04-08T14:43:55.644Z,10.57
2023-04-08T14:46:22.738Z,11.52
2023-04-08T14:48:50.025Z,12.65
2023-04-08T14:51:17.221Z,13.60
2023-04-08T14:53:44.213Z,12.48
2023-04-08T14:56:11.407Z,11.65
2023-04-08T14:58:38.376Z,11.63
2023-04-08T15:01:05.549Z,10.38
2023-04-08T15:03:33.767Z,10.82
2023-04-08T15:06:01.354Z,10.43
2023-04-08T15:08:28.614Z,10.38
2023-04-08T15:10:55.754Z,9.88
2023-04-08T15:13:23.123Z,10.18
2023-04-08T15:15:50.482Z,9.85
2023-04-08T15:18:17.478Z,11.10
2023-04-08T15:20:44.427Z,10.68
2023-04-08T15:23:11.696Z,10.20
2023-04-08T15:25:38.674Z,10.95
2023-04-08T15:28:05.716Z,11.07
2023-04-08T15:30:35.578Z,11.13
2023-04-08T15:33:05.866Z,13.15
2023-04-08T15:35:33.086Z,12.20
2023-04-08T15:38:00.825Z,12.52
2023-04-08T15:40:28.200Z,12.83
2023-04-08T15:42:55.136Z,12.75
2023-04-08T15:45:22.273Z,14.43
2023-04-08T15:47:49.287Z,14.77
2023-04-08T15:50:17.533Z,13.73
2023-04-08T15:52:44.943Z,15.30
2023-04-08T15:55:12.017Z,15.27
2023-04-08T15:57:39.161Z,15.65
2023-04-08T16:00:11.253Z,13.93
2023-04-08T16:02:38.612Z,13.63
2023-04-08T16:05:06.349Z,14.95
2023-04-08T16:07:33.259Z,14.57
2023-04-08T16:10:00.243Z,15.73
2023-04-08T16:12:27.286Z,14.18
2023-04-08T16:14:54.359Z,13.45
2023-04-08T16:17:21.981Z,14.70
2023-04-08T16:19:50.558Z,15.07
2023-04-08T16:22:17.978Z,15.18
2023-04-08T16:24:45.026Z,13.88
2023-04-08T16:27:11.961Z,15.02
2023-04-08T16:29:38.957Z,15.73
2023-04-08T16:32:06.536Z,16.50
2023-04-08T16:34:34.542Z,18.13
2023-04-08T16:37:01.905Z,16.02
2023-04-08T16:39:28.869Z,16.23
2023-04-08T16:41:55.939Z,16.15
2023-04-08T16:44:22.841Z,16.27
2023-04-08T16:46:49.777Z,16.38
2023-04-08T16:49:18.275Z,19.10
2023-04-08T16:51:45.423Z,19.45
2023-04-08T16:54:12.358Z,20.70
2023-04-08T16:56:44.307Z,20.30
2023-04-08T16:59:12.974Z,21.40
2023-04-08T17:01:40.057Z,21.55
2023-04-08T17:04:07.172Z,21.40
2023-04-08T17:06:37.699Z,22.23
2023-04-08T17:09:04.786Z,22.85
2023-04-08T17:11:31.753Z,24.40
2023-04-08T17:13:59.592Z,24.50
2023-04-08T17:16:26.582Z,24.00
2023-04-08T17:18:53.621Z,24.52
2023-04-08T17:21:20.558Z,24.20
2023-04-08T17:23:47.543Z,23.73
2023-04-08T17:26:14.640Z,22.83
2023-04-08T17:28:42.108Z,23.63
2023-04-08T17:31:10.632Z,23.13
2023-04-08T17:33:37.703Z,24.08
2023-04-08T17:36:05.136Z,24.63
2023-04-08T17:38:32.590Z,24.80
2023-04-08T17:40:59.543Z,24.23
2023-04-08T17:43:26.449Z,24.57
2023-04-08T17:45:53.523Z,24.90
2023-04-08T17:48:20.642Z,25.90
2023-04-08T17:50:47.638Z,26.43
2023-04-08T17:53:14.527Z,25.40
2023-04-08T17:55:41.879Z,30.53
2023-04-08T17:58:08.950Z,32.17
2023-04-08T18:00:35.961Z,58.73
2023-04-08T18:03:03.051Z,27.87
2023-04-08T18:05:30.208Z,77.30
2023-04-08T18:07:58.513Z,27.10
2023-04-08T18:10:25.562Z,79.77
2023-04-08T18:13:00.599Z,61.70
2023-04-08T18:15:36.211Z,25.20
2023-04-08T18:18:03.841Z,53.60
2023-04-08T18:20:30.799Z,39.83
2023-04-08T18:23:00.235Z,25.43
2023-04-08T18:25:27.451Z,25.97
2023-04-08T18:27:54.377Z,42.20
2023-04-08T18:30:23.784Z,47.93
2023-04-08T18:32:51.056Z,33.83
2023-04-08T18:35:18.626Z,36.13
2023-04-08T18:37:48.312Z,36.40
2023-04-08T18:40:15.561Z,29.43
2023-04-08T18:42:45.541Z,77.03
2023-04-08T18:45:12.653Z,31.53
2023-04-08T18:47:39.630Z,32.93
2023-04-08T18:50:07.796Z,32.60
2023-04-08T18:52:34.874Z,43.00
2023-04-08T18:55:02.760Z,68.73
2023-04-08T18:57:29.814Z,35.13
2023-04-08T18:59:56.764Z,59.77
2023-04-08T19:02:23.884Z,67.93
2023-04-08T19:04:52.097Z,36.23
2023-04-08T19:07:19.060Z,37.53
2023-04-08T19:09:46.046Z,33.03
2023-04-08T19:12:12.998Z,35.40
2023-04-08T19:14:41.937Z,60.40
2023-04-08T19:17:09.797Z,54.30
2023-04-08T19:19:36.831Z,38.50
2023-04-08T19:22:05.812Z,89.87
2023-04-08T19:24:33.556Z,126.70
2023-04-08T19:27:00.727Z,53.93
2023-04-08T19:29:29.649Z,44.17
2023-04-08T19:31:57.689Z,39.23
2023-04-08T19:34:25.261Z,37.57
2023-04-08T19:36:52.653Z,35.57
2023-04-08T19:39:19.710Z,39.07
2023-04-08T19:41:47.112Z,34.23
2023-04-08T19:44:14.147Z,38.27
2023-04-08T19:46:41.229Z,35.53
2023-04-08T19:49:08.214Z,34.37
2023-04-08T19:51:35.466Z,34.70
2023-04-08T19:54:02.488Z,33.83
2023-04-08T19:56:33.995Z,33.17
2023-04-08T19:59:04.177Z,34.80
2023-04-08T20:01:31.404Z,33.33
2023-04-08T20:03:58.448Z,32.43
2023-04-08T20:06:25.402Z,33.23
2023-04-08T20:08:53.527Z,33.57
2023-04-08T20:11:21.120Z,34.43
2023-04-08T20:13:49.909Z,35.37
2023-04-08T20:16:16.961Z,35.30
2023-04-08T20:18:43.959Z,35.43
2023-04-08T20:21:13.957Z,35.87
2023-04-08T20:23:44.898Z,34.20
2023-04-08T20:26:12.980Z,37.13
2023-04-08T20:28:40.807Z,39.50
2023-04-08T20:31:09.220Z,41.13
2023-04-08T20:33:38.245Z,42.50
2023-04-08T20:36:05.573Z,44.90
2023-04-08T20:38:35.267Z,42.40
2023-04-08T20:41:02.646Z,44.60
2023-04-08T20:43:29.656Z,43.43
2023-04-08T20:45:56.617Z,43.90
2023-04-08T20:48:23.668Z,46.33
2023-04-08T20:50:51.092Z,43.20
2023-04-08T20:53:19.562Z,43.97
2023-04-08T20:55:46.608Z,42.40
2023-04-08T20:58:13.588Z,43.43
2023-04-08T21:00:40.840Z,42.13
2023-04-08T21:03:07.902Z,42.57
2023-04-08T21:05:38.231Z,44.33
2023-04-08T21:08:06.120Z,43.27
2023-04-08T21:10:33.084Z,41.23
2023-04-08T21:13:01.118Z,42.30
2023-04-08T21:15:28.522Z,40.97
2023-04-08T21:17:55.680Z,39.87
2023-04-08T21:20:23.047Z,38.27
2023-04-08T21:22:50.326Z,40.77
2023-04-08T21:25:18.102Z,41.53
2023-04-08T21:27:45.533Z,40.50
2023-04-08T21:30:12.779Z,42.93
2023-04-08T21:32:39.920Z,41.37
2023-04-08T21:35:07.302Z,41.53
2023-04-08T21:37:34.672Z,42.23
2023-04-08T21:40:01.631Z,40.50
2023-04-08T21:42:28.886Z,38.90
2023-04-08T21:44:55.918Z,36.67
2023-04-08T21:47:22.895Z,35.60
2023-04-08T21:49:50.083Z,33.43
2023-04-08T21:52:17.916Z,34.70
2023-04-08T21:54:49.578Z,37.00
2023-04-08T21:57:16.501Z,38.30
2023-04-08T21:59:43.456Z,36.50
2023-04-08T22:02:11.758Z,38.27
2023-04-08T22:04:38.930Z,36.00
2023-04-08T22:07:06.324Z,34.50
2023-04-08T22:09:33.362Z,35.83
2023-04-08T22:12:02.115Z,45.53
2023-04-08T22:14:29.174Z,44.53
2023-04-08T22:16:56.274Z,40.57
2023-04-08T22:19:23.606Z,37.60
2023-04-08T22:21:51.172Z,36.57
2023-04-08T22:24:19.438Z,37.37
2023-04-08T22:26:46.979Z,33.63
2023-04-08T22:29:14.169Z,31.77
2023-04-08T22:31:41.302Z,32.37
2023-04-08T22:34:08.255Z,31.00
2023-04-08T22:36:35.414Z,30.27
2023-04-08T22:39:02.319Z,32.17
2023-04-08T22:41:29.319Z,35.27
2023-04-08T22:43:58.898Z,36.70
2023-04-08T22:46:25.926Z,40.17
2023-04-08T22:48:53.088Z,38.00
2023-04-08T22:51:20.929Z,36.77
2023-04-08T22:53:48.002Z,37.03
2023-04-08T22:56:14.960Z,36.80
2023-04-08T22:58:42.056Z,34.80
2023-04-08T23:01:17.351Z,36.20
2023-04-08T23:03:44.942Z,26.13
2023-04-08T23:06:12.026Z,24.27
2023-04-08T23:08:39.062Z,21.50
2023-04-08T23:11:07.088Z,26.63
2023-04-08T23:13:34.532Z,28.27
2023-04-08T23:16:01.603Z,29.60
2023-04-08T23:18:28.946Z,31.67
2023-04-08T23:20:57.816Z,30.73
2023-04-08T23:23:26.097Z,31.00
2023-04-08T23:25:55.723Z,32.50
2023-04-08T23:28:23.597Z,33.87
2023-04-08T23:30:50.727Z,32.37
2023-04-08T23:33:17.861Z,33.33
2023-04-08T23:35:44.883Z,32.23
2023-04-08T23:38:12.003Z,32.73
2023-04-08T23:40:39.030Z,32.43
2023-04-08T23:43:06.166Z,30.70
2023-04-08T23:45:33.210Z,33.93
2023-04-08T23:48:00.359Z,33.63
2023-04-08T23:50:27.471Z,36.60
2023-04-08T23:52:54.472Z,33.50
2023-04-08T23:55:24.097Z,31.97
2023-04-08T23:57:54.021Z,30.80
